Tropical Cyclones
[Index]
Main Index Home Page Stock Weather Photos Extreme Storms Discussion Storm News and Storm Chasing Reports Tropical Cyclones / Hurricanes / Typhoons Weather Data and Links Wild Fires / Bushfires Weather Observation Techniques Weather Picture Catalogue Tornado Pictures and Reports Stock Video Footage and DVDs for sale
Season 2007-2008 Tropical Cyclone 200817 Track Map
Season 2007-2008 Summaries: [BoM-AU] [JTWC-AU] [JTWC-SIO] [JTWC-SPAC] [JTWC-SH]
<<- Previous TC | JTWC 2007-2008 Season | Next TC ->>

click for intensity scale information  Lat/long Grid: Show Hide

 Date Labels: Show Hide

Joint Typhoon Warning Centre Cyclone Data

Name: 200817

03 Feb 2008 12:00 UTC to 11 Feb 2008 00:00 UTC

    date/time    lat    long     hPa   cat  kts
2008-02-03 12   14.4   100.5    1010         15          
2008-02-03 18   14.7   100.5    1010         15          
2008-02-04 00   15.0   100.6    1010         15          
2008-02-04 06   15.5   100.9    1007         20          
2008-02-04 12   15.9   101.0    1007         20          
2008-02-04 18   16.2   100.9    1004         25          
2008-02-05 00   16.0   100.9    1004         25          
2008-02-05 06   16.2   101.2    1000         30          
2008-02-05 12   16.0   101.7    1000         30          
2008-02-05 18   15.9   102.2    1000         30          
2008-02-06 00   15.7   102.8    1000         30          
2008-02-06 06   15.7   103.7    1000         30          
2008-02-06 12   15.9   104.2    1000         30          
2008-02-06 18   16.0   104.7    1000         30          
2008-02-07 00   16.1   105.1     996         35          
2008-02-07 06   16.3   105.4     996         35          
2008-02-07 12   16.6   106.0     996         35          
2008-02-07 18   16.9   106.5     996         35          
2008-02-08 00   17.2   106.9     996         35          
2008-02-08 06   17.3   107.3     996         35          
2008-02-08 12   17.3   107.6     993    1    40          
2008-02-08 18   17.3   107.9     993    1    40          
2008-02-09 00   17.3   108.0     996         35          
2008-02-09 06   17.0   108.0     996         35          
2008-02-09 12   16.6   108.2     996         35          
2008-02-09 18   16.2   108.5    1000         30          
2008-02-10 00   15.7   109.1    1000         30          
2008-02-10 06   15.0   109.8    1000         30          
2008-02-10 12   14.6   110.7    1000         30          
2008-02-10 18   14.2   111.9    1004         25          
2008-02-11 00   13.9   113.3    1007         20          
Winds are 1-min average.

Tropical cyclone tracks developed by Michael Bath using data from the Joint Typhoon Warning Centre Best Tracks and Google Maps.


[Australian Severe Weather index] [Copyright Notice] [Email Contacts] [Search This Site] [Privacy Policy]
Document: tropical_cyclone_200817.htm Updated: 28 June 2017